createdAt,value
2023-04-01T00:01:20.863Z,1.40
2023-04-01T00:03:51.275Z,1.38
2023-04-01T00:06:20.518Z,1.00
2023-04-01T00:08:49.220Z,1.30
2023-04-01T00:11:18.264Z,1.40
2023-04-01T00:13:49.919Z,1.35
2023-04-01T00:16:22.300Z,1.30
2023-04-01T00:18:53.343Z,1.17
2023-04-01T00:21:23.336Z,1.30
2023-04-01T00:23:52.246Z,1.58
2023-04-01T00:26:22.473Z,1.67
2023-04-01T00:28:52.018Z,1.20
2023-04-01T00:31:21.569Z,1.40
2023-04-01T00:33:50.608Z,1.35
2023-04-01T00:36:22.564Z,1.50
2023-04-01T00:38:51.460Z,1.40
2023-04-01T00:41:22.316Z,1.15
2023-04-01T00:43:52.261Z,1.30
2023-04-01T00:46:21.285Z,1.40
2023-04-01T00:48:51.319Z,1.15
2023-04-01T00:51:22.923Z,1.33
2023-04-01T00:53:53.008Z,1.20
2023-04-01T00:56:23.347Z,1.40
2023-04-01T00:58:53.397Z,1.33
2023-04-01T01:01:23.426Z,1.20
2023-04-01T01:03:52.412Z,1.40
2023-04-01T01:06:26.952Z,1.20
2023-04-01T01:09:04.842Z,1.50
2023-04-01T01:11:43.546Z,1.52
2023-04-01T01:14:17.079Z,1.23
2023-04-01T01:16:47.212Z,1.83
2023-04-01T01:19:28.361Z,1.30
2023-04-01T01:22:06.439Z,1.05
2023-04-01T01:24:45.207Z,1.40
2023-04-01T01:27:14.840Z,1.23
2023-04-01T01:29:48.128Z,1.40
2023-04-01T01:32:22.818Z,1.33
2023-04-01T01:34:54.208Z,1.35
2023-04-01T01:37:26.518Z,1.50
2023-04-01T01:39:56.839Z,1.30
2023-04-01T01:42:27.138Z,1.45
2023-04-01T01:44:57.950Z,1.30
2023-04-01T01:47:27.474Z,1.30
2023-04-01T01:49:57.361Z,1.38
2023-04-01T01:52:27.562Z,1.27
2023-04-01T01:54:57.226Z,1.30
2023-04-01T01:57:31.579Z,1.38
2023-04-01T02:00:04.349Z,1.23
2023-04-01T02:02:42.362Z,1.25
2023-04-01T02:05:12.678Z,1.25
2023-04-01T02:07:45.474Z,1.50
2023-04-01T02:10:14.601Z,1.30
2023-04-01T02:12:44.982Z,1.20
2023-04-01T02:15:16.748Z,1.40
2023-04-01T02:17:46.556Z,1.40
2023-04-01T02:20:17.984Z,1.25
2023-04-01T02:22:50.746Z,1.30
2023-04-01T02:25:21.616Z,1.13
2023-04-01T02:27:50.439Z,1.15
2023-04-01T02:30:20.027Z,1.23
2023-04-01T02:32:49.721Z,1.08
2023-04-01T02:35:19.517Z,1.25
2023-04-01T02:37:52.062Z,1.27
2023-04-01T02:40:21.309Z,1.20
2023-04-01T02:42:50.145Z,1.05
2023-04-01T02:45:18.853Z,1.13
2023-04-01T02:47:47.616Z,1.13
2023-04-01T02:50:16.496Z,1.10
2023-04-01T02:52:45.201Z,0.90
2023-04-01T02:55:15.874Z,1.00
2023-04-01T02:57:44.639Z,1.13
2023-04-01T03:00:13.991Z,0.90
2023-04-01T03:02:42.857Z,1.33
2023-04-01T03:05:11.708Z,1.35
2023-04-01T03:07:40.343Z,1.20
2023-04-01T03:10:09.597Z,1.15
2023-04-01T03:12:39.926Z,1.08
2023-04-01T03:15:10.998Z,0.98
2023-04-01T03:17:41.816Z,1.13
2023-04-01T03:20:11.725Z,1.13
2023-04-01T03:22:42.833Z,1.40
2023-04-01T03:25:12.680Z,1.05
2023-04-01T03:27:42.775Z,1.20
2023-04-01T03:30:12.074Z,1.45
2023-04-01T03:32:49.586Z,1.00
2023-04-01T03:35:18.418Z,1.30
2023-04-01T03:37:48.222Z,1.20
2023-04-01T03:40:17.056Z,1.05
2023-04-01T03:42:49.677Z,1.08
2023-04-01T03:45:18.490Z,1.35
2023-04-01T03:47:47.238Z,1.10
2023-04-01T03:50:16.072Z,1.50
2023-04-01T03:52:44.964Z,1.10
2023-04-01T03:55:13.625Z,1.27
2023-04-01T03:57:42.552Z,1.13
2023-04-01T04:00:20.632Z,1.35
2023-04-01T04:02:56.091Z,1.20
2023-04-01T04:05:29.973Z,1.10
2023-04-01T04:07:58.792Z,1.02
2023-04-01T04:10:27.536Z,1.30
2023-04-01T04:12:56.316Z,1.20
2023-04-01T04:15:28.276Z,1.17
2023-04-01T04:17:57.126Z,1.30
2023-04-01T04:20:25.812Z,1.20
2023-04-01T04:22:54.489Z,1.02
2023-04-01T04:25:23.314Z,1.20
2023-04-01T04:27:52.068Z,1.20
2023-04-01T04:30:22.305Z,1.40
2023-04-01T04:32:52.446Z,1.13
2023-04-01T04:35:21.282Z,1.20
2023-04-01T04:37:50.170Z,1.30
2023-04-01T04:40:19.741Z,1.23
2023-04-01T04:42:48.489Z,1.20
2023-04-01T04:45:18.825Z,1.20
2023-04-01T04:47:57.276Z,1.30
2023-04-01T04:50:26.539Z,0.80
2023-04-01T04:52:55.653Z,1.23
2023-04-01T04:55:24.954Z,1.20
2023-04-01T04:58:11.470Z,0.93
2023-04-01T05:00:43.941Z,1.17
2023-04-01T05:03:22.094Z,1.17
2023-04-01T05:05:51.913Z,1.10
2023-04-01T05:08:20.778Z,1.10
2023-04-01T05:10:49.560Z,1.08
2023-04-01T05:13:18.218Z,1.30
2023-04-01T05:15:49.595Z,1.10
2023-04-01T05:18:18.948Z,1.73
2023-04-01T05:20:53.903Z,1.00
2023-04-01T05:23:23.006Z,1.17
2023-04-01T05:25:52.073Z,1.20
2023-04-01T05:28:21.551Z,1.13
2023-04-01T05:30:50.406Z,1.27
2023-04-01T05:33:33.129Z,1.00
2023-04-01T05:36:09.919Z,1.10
2023-04-01T05:38:39.011Z,1.20
2023-04-01T05:41:10.371Z,1.00
2023-04-01T05:43:42.970Z,1.00
2023-04-01T05:46:35.096Z,0.95
2023-04-01T05:49:14.240Z,0.80
2023-04-01T05:51:44.459Z,0.98
2023-04-01T05:54:13.220Z,0.98
2023-04-01T05:56:42.239Z,1.02
2023-04-01T05:59:12.884Z,1.08
2023-04-01T06:01:41.907Z,1.10
2023-04-01T06:04:13.231Z,1.10
2023-04-01T06:06:42.657Z,1.08
2023-04-01T06:09:17.225Z,0.98
2023-04-01T06:12:00.741Z,1.17
2023-04-01T06:14:36.504Z,1.42
2023-04-01T06:17:20.102Z,1.35
2023-04-01T06:19:53.311Z,1.30
2023-04-01T06:22:29.172Z,0.80
2023-04-01T06:25:07.734Z,1.17
2023-04-01T06:27:53.707Z,1.30
2023-04-01T06:30:36.021Z,1.30
2023-04-01T06:33:15.830Z,1.40
2023-04-01T06:35:53.348Z,1.23
2023-04-01T06:38:36.978Z,1.13
2023-04-01T06:41:23.403Z,1.30
2023-04-01T06:43:58.441Z,1.20
2023-04-01T06:47:06.653Z,0.82
2023-04-01T06:50:11.861Z,1.10
2023-04-01T06:53:15.460Z,1.10
2023-04-01T06:56:05.107Z,0.90
2023-04-01T06:59:03.570Z,0.93
2023-04-01T07:01:34.475Z,1.10
2023-04-01T07:04:04.981Z,0.90
2023-04-01T07:06:35.409Z,0.93
2023-04-01T07:09:08.211Z,1.17
2023-04-01T07:11:58.576Z,0.90
2023-04-01T07:15:06.832Z,2.22
2023-04-01T07:17:36.593Z,1.13
2023-04-01T07:20:08.505Z,1.10
2023-04-01T07:22:41.242Z,1.00
2023-04-01T07:25:33.740Z,0.90
2023-04-01T07:28:26.086Z,0.98
2023-04-01T07:31:10.497Z,1.30
2023-04-01T07:33:42.479Z,1.10
2023-04-01T07:36:13.567Z,0.80
2023-04-01T07:38:48.262Z,0.88
2023-04-01T07:41:26.832Z,0.90
2023-04-01T07:43:58.638Z,0.82
2023-04-01T07:46:49.146Z,1.00
2023-04-01T07:49:19.710Z,1.00
2023-04-01T07:51:53.818Z,1.02
2023-04-01T07:54:26.708Z,0.93
2023-04-01T07:57:01.156Z,0.95
2023-04-01T07:59:48.932Z,0.98
2023-04-01T08:02:32.203Z,1.38
2023-04-01T08:05:07.045Z,0.93
2023-04-01T08:07:39.248Z,1.00
2023-04-01T08:10:28.521Z,1.00
2023-04-01T08:13:19.528Z,1.25
2023-04-01T08:16:11.799Z,0.90
2023-04-01T08:18:54.081Z,1.05
2023-04-01T08:21:24.564Z,1.00
2023-04-01T08:23:55.241Z,0.80
2023-04-01T08:26:30.667Z,1.33
2023-04-01T08:29:04.061Z,1.10
2023-04-01T08:31:36.447Z,1.23
2023-04-01T08:34:08.964Z,1.25
2023-04-01T08:36:40.378Z,1.02
2023-04-01T08:39:19.341Z,1.13
2023-04-01T08:42:06.932Z,0.90
2023-04-01T08:45:07.024Z,1.00
2023-04-01T08:47:45.228Z,1.00
2023-04-01T08:50:41.986Z,0.98
2023-04-01T08:53:35.456Z,1.05
2023-04-01T08:56:09.331Z,1.25
2023-04-01T08:58:48.162Z,1.02
2023-04-01T09:01:30.882Z,1.00
2023-04-01T09:04:08.019Z,0.98
2023-04-01T09:06:40.654Z,1.00
2023-04-01T09:09:23.057Z,1.00
2023-04-01T09:12:09.556Z,0.80
2023-04-01T09:14:51.459Z,1.17
2023-04-01T09:17:41.259Z,1.02
2023-04-01T09:20:20.194Z,1.10
2023-04-01T09:23:07.561Z,1.13
2023-04-01T09:25:53.997Z,0.90
2023-04-01T09:28:26.834Z,1.33
2023-04-01T09:31:03.796Z,0.90
2023-04-01T09:33:47.809Z,0.93
2023-04-01T09:36:24.973Z,0.90
2023-04-01T09:38:58.615Z,1.17
2023-04-01T09:41:32.941Z,0.88
2023-04-01T09:44:26.573Z,0.93
2023-04-01T09:47:16.849Z,0.73
2023-04-01T09:50:17.005Z,0.77
2023-04-01T09:52:48.330Z,0.80
2023-04-01T09:55:50.978Z,0.93
2023-04-01T09:58:35.296Z,0.90
2023-04-01T10:01:42.774Z,0.85
2023-04-01T10:04:37.235Z,0.63
2023-04-01T10:07:25.212Z,0.77
2023-04-01T10:10:12.763Z,0.80
2023-04-01T10:13:03.916Z,0.90
2023-04-01T10:15:43.048Z,0.77
2023-04-01T10:18:30.519Z,0.95
2023-04-01T10:21:13.713Z,0.70
2023-04-01T10:24:00.565Z,0.95
2023-04-01T10:26:47.489Z,0.52
2023-04-01T10:29:46.838Z,0.77
2023-04-01T10:32:26.952Z,0.63
2023-04-01T10:35:19.947Z,0.77
2023-04-01T10:38:06.615Z,0.63
2023-04-01T10:40:53.282Z,0.88
2023-04-01T10:44:24.252Z,0.60
2023-04-01T10:47:07.925Z,0.65
2023-04-01T10:49:51.881Z,1.30
2023-04-01T10:52:40.886Z,0.88
2023-04-01T10:55:42.951Z,0.85
2023-04-01T10:58:44.455Z,0.82
2023-04-01T11:02:11.794Z,0.60
2023-04-01T11:05:25.472Z,0.60
2023-04-01T11:08:11.566Z,0.50
2023-04-01T11:11:03.199Z,0.70
2023-04-01T11:13:52.826Z,0.77
2023-04-01T11:16:48.678Z,0.80
2023-04-01T11:19:31.956Z,0.40
2023-04-01T11:22:12.654Z,0.60
2023-04-01T11:24:56.350Z,0.75
2023-04-01T11:27:45.420Z,0.73
2023-04-01T11:30:17.753Z,0.80
2023-04-01T11:33:03.851Z,0.57
2023-04-01T11:35:45.772Z,0.40
2023-04-01T11:38:26.211Z,0.70
2023-04-01T11:40:57.969Z,0.60
2023-04-01T11:44:18.037Z,0.65
2023-04-01T11:47:08.430Z,0.57
2023-04-01T11:49:45.427Z,0.60
2023-04-01T11:52:44.154Z,0.65
2023-04-01T11:55:22.966Z,0.55
2023-04-01T11:58:05.945Z,0.57
2023-04-01T12:01:04.399Z,0.60
2023-04-01T12:03:45.443Z,0.70
2023-04-01T12:06:17.068Z,0.85
2023-04-01T12:08:54.470Z,0.47
2023-04-01T12:11:28.792Z,0.70
2023-04-01T12:14:03.279Z,0.40
2023-04-01T12:16:37.654Z,0.60
2023-04-01T12:19:13.218Z,0.52
2023-04-01T12:21:45.615Z,0.80
2023-04-01T12:24:22.521Z,0.60
2023-04-01T12:26:58.338Z,0.50
2023-04-01T12:29:41.935Z,0.60
2023-04-01T12:32:18.798Z,0.60
2023-04-01T12:34:59.467Z,0.65
2023-04-01T12:37:31.996Z,0.80
2023-04-01T12:40:05.661Z,0.70
2023-04-01T12:42:39.978Z,0.60
2023-04-01T12:45:22.034Z,0.70
2023-04-01T12:48:03.648Z,0.52
2023-04-01T12:50:40.435Z,0.70
2023-04-01T12:53:23.979Z,0.80
2023-04-01T12:55:53.694Z,0.80
2023-04-01T12:58:37.243Z,0.82
2023-04-01T13:01:19.709Z,0.50
2023-04-01T13:04:21.617Z,0.65
2023-04-01T13:06:56.370Z,0.73
2023-04-01T13:09:29.233Z,0.50
2023-04-01T13:12:06.471Z,0.70
2023-04-01T13:14:51.538Z,0.70
2023-04-01T13:17:23.556Z,0.60
2023-04-01T13:20:04.730Z,0.60
2023-04-01T13:22:38.924Z,0.65
2023-04-01T13:25:09.560Z,0.60
2023-04-01T13:27:40.101Z,0.60
2023-04-01T13:30:21.779Z,0.60
2023-04-01T13:32:57.431Z,0.60
2023-04-01T13:35:31.541Z,0.60
2023-04-01T13:38:11.574Z,0.77
2023-04-01T13:40:55.736Z,0.50
2023-04-01T13:43:34.642Z,0.63
2023-04-01T13:46:26.593Z,0.63
2023-04-01T13:49:13.243Z,0.52
2023-04-01T13:51:59.888Z,0.70
2023-04-01T13:54:41.076Z,0.77
2023-04-01T13:57:20.208Z,0.70
2023-04-01T14:00:02.172Z,0.60
2023-04-01T14:02:39.602Z,0.50
2023-04-01T14:05:18.024Z,0.90
2023-04-01T14:07:53.009Z,1.00
2023-04-01T14:10:26.549Z,0.60
2023-04-01T14:13:00.320Z,0.60
2023-04-01T14:15:44.669Z,0.88
2023-04-01T14:18:30.653Z,0.77
2023-04-01T14:21:07.261Z,0.70
2023-04-01T14:23:43.654Z,0.70
2023-04-01T14:26:25.260Z,0.70
2023-04-01T14:28:58.010Z,0.63
2023-04-01T14:31:33.807Z,0.70
2023-04-01T14:34:07.255Z,0.60
2023-04-01T14:36:42.188Z,0.80
2023-04-01T14:39:44.068Z,0.80
2023-04-01T14:42:22.585Z,0.68
2023-04-01T14:45:00.317Z,0.70
2023-04-01T14:47:39.895Z,0.60
2023-04-01T14:50:11.830Z,0.50
2023-04-01T14:52:42.323Z,0.60
2023-04-01T14:55:22.034Z,0.70
2023-04-01T14:58:02.937Z,0.57
2023-04-01T15:00:42.951Z,0.90
2023-04-01T15:03:17.933Z,0.63
2023-04-01T15:05:50.270Z,0.70
2023-04-01T15:08:21.329Z,0.70
2023-04-01T15:11:07.654Z,0.80
2023-04-01T15:13:46.901Z,0.70
2023-04-01T15:16:22.023Z,0.90
2023-04-01T15:18:56.291Z,0.77
2023-04-01T15:21:30.051Z,1.08
2023-04-01T15:24:02.964Z,0.77
2023-04-01T15:26:36.341Z,0.93
2023-04-01T15:29:15.844Z,0.70
2023-04-01T15:31:48.174Z,0.70
2023-04-01T15:34:24.161Z,0.73
2023-04-01T15:36:55.492Z,0.80
2023-04-01T15:39:27.378Z,0.90
2023-04-01T15:42:07.415Z,0.90
2023-04-01T15:44:46.245Z,0.63
2023-04-01T15:47:29.332Z,0.60
2023-04-01T15:49:59.153Z,0.70
2023-04-01T15:52:37.538Z,1.25
2023-04-01T15:55:17.484Z,0.80
2023-04-01T15:57:52.770Z,1.10
2023-04-01T16:00:31.061Z,0.70
2023-04-01T16:03:19.370Z,0.90
2023-04-01T16:05:54.919Z,0.85
2023-04-01T16:08:44.722Z,0.90
2023-04-01T16:11:17.795Z,0.70
2023-04-01T16:13:51.156Z,0.95
2023-04-01T16:16:28.048Z,1.23
2023-04-01T16:19:04.487Z,1.05
2023-04-01T16:21:41.129Z,0.95
2023-04-01T16:24:16.534Z,0.80
2023-04-01T16:26:48.082Z,0.80
2023-04-01T16:29:23.164Z,0.70
2023-04-01T16:31:56.184Z,0.90
2023-04-01T16:34:30.300Z,0.80
2023-04-01T16:37:03.244Z,0.90
2023-04-01T16:39:41.671Z,0.63
2023-04-01T16:42:19.828Z,0.80
2023-04-01T16:44:51.328Z,1.02
2023-04-01T16:47:24.480Z,1.40
2023-04-01T16:49:56.280Z,0.98
2023-04-01T16:52:33.934Z,1.10
2023-04-01T16:55:05.193Z,0.90
2023-04-01T16:57:39.230Z,1.20
2023-04-01T17:00:18.023Z,0.70
2023-04-01T17:02:51.136Z,1.13
2023-04-01T17:05:20.168Z,0.93
2023-04-01T17:07:51.073Z,0.77
2023-04-01T17:10:35.967Z,1.02
2023-04-01T17:13:16.053Z,0.90
2023-04-01T17:15:48.288Z,1.00
2023-04-01T17:18:25.139Z,0.80
2023-04-01T17:20:58.889Z,0.88
2023-04-01T17:23:31.314Z,1.02
2023-04-01T17:26:09.312Z,1.90
2023-04-01T17:28:45.899Z,0.88
2023-04-01T17:31:18.406Z,1.10
2023-04-01T17:33:57.429Z,1.17
2023-04-01T17:36:36.014Z,1.27
2023-04-01T17:39:14.511Z,1.30
2023-04-01T17:41:48.358Z,1.17
2023-04-01T17:44:26.717Z,1.13
2023-04-01T17:47:17.140Z,1.40
2023-04-01T17:49:52.851Z,1.10
2023-04-01T17:52:24.791Z,1.40
2023-04-01T17:54:56.823Z,1.38
2023-04-01T17:57:32.018Z,1.27
2023-04-01T18:00:04.849Z,1.60
2023-04-01T18:02:46.020Z,1.20
2023-04-01T18:05:24.355Z,1.67
2023-04-01T18:08:16.731Z,1.30
2023-04-01T18:10:54.118Z,1.55
2023-04-01T18:13:43.714Z,1.60
2023-04-01T18:16:18.228Z,1.58
2023-04-01T18:18:52.215Z,1.30
2023-04-01T18:21:26.833Z,1.42
2023-04-01T18:24:02.433Z,1.35
2023-04-01T18:26:34.234Z,1.10
2023-04-01T18:29:06.239Z,1.30
2023-04-01T18:31:37.999Z,1.10
2023-04-01T18:34:10.224Z,1.30
2023-04-01T18:36:44.156Z,1.33
2023-04-01T18:39:14.456Z,1.70
2023-04-01T18:41:47.098Z,1.08
2023-04-01T18:44:23.146Z,1.40
2023-04-01T18:46:53.935Z,1.55
2023-04-01T18:49:24.486Z,1.33
2023-04-01T18:51:58.318Z,1.70
2023-04-01T18:54:30.902Z,1.58
2023-04-01T18:57:04.633Z,1.85
2023-04-01T18:59:36.890Z,2.25
2023-04-01T19:02:08.244Z,1.42
2023-04-01T19:04:40.351Z,1.60
2023-04-01T19:07:32.447Z,1.75
2023-04-01T19:10:03.785Z,1.75
2023-04-01T19:12:37.665Z,1.42
2023-04-01T19:15:16.837Z,1.85
2023-04-01T19:17:54.882Z,1.55
2023-04-01T19:20:26.018Z,1.52
2023-04-01T19:23:01.258Z,1.83
2023-04-01T19:25:37.781Z,1.40
2023-04-01T19:28:16.366Z,1.30
2023-04-01T19:30:48.726Z,1.20
2023-04-01T19:33:24.082Z,1.38
2023-04-01T19:35:56.704Z,1.50
2023-04-01T19:38:29.474Z,1.70
2023-04-01T19:41:00.917Z,1.67
2023-04-01T19:43:35.514Z,1.52
2023-04-01T19:46:07.216Z,1.48
2023-04-01T19:48:44.722Z,1.40
2023-04-01T19:51:17.949Z,1.55
2023-04-01T19:53:53.665Z,1.90
2023-04-01T19:56:23.724Z,1.30
2023-04-01T19:58:57.898Z,2.08
2023-04-01T20:01:38.164Z,1.48
2023-04-01T20:04:15.779Z,1.13
2023-04-01T20:06:47.461Z,1.70
2023-04-01T20:09:29.891Z,1.52
2023-04-01T20:12:02.146Z,1.63
2023-04-01T20:14:35.983Z,1.33
2023-04-01T20:17:10.456Z,1.60
2023-04-01T20:19:41.085Z,1.70
2023-04-01T20:22:19.299Z,1.58
2023-04-01T20:24:49.590Z,1.20
2023-04-01T20:27:21.952Z,1.63
2023-04-01T20:29:59.434Z,1.60
2023-04-01T20:32:38.371Z,1.65
2023-04-01T20:35:35.134Z,1.40
2023-04-01T20:38:15.488Z,1.17
2023-04-01T20:40:47.735Z,1.88
2023-04-01T20:43:40.758Z,1.15
2023-04-01T20:46:14.352Z,1.25
2023-04-01T20:49:01.448Z,2.33
2023-04-01T20:51:34.261Z,1.80
2023-04-01T20:54:08.890Z,1.50
2023-04-01T20:56:44.316Z,1.35
2023-04-01T20:59:20.533Z,1.23
2023-04-01T21:01:55.030Z,1.17
2023-04-01T21:04:30.459Z,1.48
2023-04-01T21:07:06.090Z,1.55
2023-04-01T21:09:45.173Z,1.40
2023-04-01T21:12:22.845Z,1.75
2023-04-01T21:15:12.496Z,1.80
2023-04-01T21:17:45.681Z,2.35
2023-04-01T21:20:27.430Z,1.52
2023-04-01T21:23:08.264Z,1.55
2023-04-01T21:25:45.495Z,1.50
2023-04-01T21:28:32.033Z,1.40
2023-04-01T21:31:08.239Z,1.50
2023-04-01T21:33:49.932Z,1.48
2023-04-01T21:36:23.791Z,1.65
2023-04-01T21:38:59.612Z,1.50
2023-04-01T21:41:43.591Z,1.50
2023-04-01T21:44:38.444Z,1.60
2023-04-01T21:47:25.798Z,1.40
2023-04-01T21:50:05.701Z,1.60
2023-04-01T21:52:41.150Z,1.45
2023-04-01T21:55:35.238Z,1.30
2023-04-01T21:58:34.205Z,1.50
2023-04-01T22:01:10.737Z,1.40
2023-04-01T22:03:52.911Z,1.60
2023-04-01T22:06:28.287Z,1.33
2023-04-01T22:09:05.481Z,1.15
2023-04-01T22:11:40.372Z,1.13
2023-04-01T22:14:11.606Z,1.30
2023-04-01T22:16:42.778Z,1.50
2023-04-01T22:19:15.663Z,1.70
2023-04-01T22:21:53.020Z,1.63
2023-04-01T22:24:26.622Z,1.35
2023-04-01T22:26:59.941Z,1.65
2023-04-01T22:29:33.928Z,1.10
2023-04-01T22:32:04.601Z,1.80
2023-04-01T22:34:37.038Z,1.38
2023-04-01T22:37:11.339Z,1.60
2023-04-01T22:39:48.237Z,1.52
2023-04-01T22:42:25.225Z,1.08
2023-04-01T22:44:57.953Z,1.63
2023-04-01T22:47:32.749Z,2.00
2023-04-01T22:50:05.842Z,1.67
2023-04-01T22:52:37.844Z,1.05
2023-04-01T22:55:11.608Z,1.63
2023-04-01T22:57:42.913Z,1.45
2023-04-01T23:00:16.261Z,1.30
2023-04-01T23:02:47.298Z,1.50
2023-04-01T23:05:18.631Z,1.20
2023-04-01T23:07:51.674Z,1.20
2023-04-01T23:10:23.644Z,1.67
2023-04-01T23:12:54.519Z,1.17
2023-04-01T23:15:24.121Z,1.55
2023-04-01T23:18:00.264Z,1.40
2023-04-01T23:20:32.716Z,1.52
2023-04-01T23:23:08.641Z,1.00
2023-04-01T23:25:43.457Z,1.35
2023-04-01T23:28:22.987Z,1.70
2023-04-01T23:30:52.559Z,1.58
2023-04-01T23:33:25.993Z,2.05
2023-04-01T23:35:55.874Z,1.33
2023-04-01T23:38:27.137Z,1.55
2023-04-01T23:40:57.400Z,1.52
2023-04-01T23:43:28.259Z,1.80
2023-04-01T23:45:58.182Z,1.38
2023-04-01T23:48:29.737Z,1.48
2023-04-01T23:50:58.911Z,1.77
2023-04-01T23:53:31.225Z,1.48
2023-04-01T23:56:00.114Z,1.50
2023-04-01T23:58:30.110Z,1.25
